sensor_id;sensor_type;location;lat;lon;timestamp;pressure;altitude;pressure_sealevel;temperature;humidity
24154;BME280;12312;53.362;-1.518;2023-06-10T00:02:04;99390.34;;;11.74;100.00
24154;BME280;12312;53.362;-1.518;2023-06-10T00:04:51;99390.28;;;11.87;100.00
24154;BME280;12312;53.362;-1.518;2023-06-10T00:07:36;99398.22;;;11.99;100.00
24154;BME280;12312;53.362;-1.518;2023-06-10T00:10:23;99396.25;;;11.90;100.00
24154;BME280;12312;53.362;-1.518;2023-06-10T00:13:07;99396.47;;;11.87;100.00
24154;BME280;12312;53.362;-1.518;2023-06-10T00:15:52;99396.06;;;11.81;100.00
24154;BME280;12312;53.362;-1.518;2023-06-10T00:18:36;99402.09;;;11.59;100.00
24154;BME280;12312;53.362;-1.518;2023-06-10T00:21:22;99395.91;;;11.71;100.00
24154;BME280;12312;53.362;-1.518;2023-06-10T00:24:08;99391.66;;;11.69;100.00
24154;BME280;12312;53.362;-1.518;2023-06-10T00:26:57;99392.06;;;11.75;100.00
24154;BME280;12312;53.362;-1.518;2023-06-10T00:29:41;99385.50;;;11.56;100.00
24154;BME280;12312;53.362;-1.518;2023-06-10T00:32:25;99384.53;;;11.57;100.00
24154;BME280;12312;53.362;-1.518;2023-06-10T00:35:09;99381.47;;;11.50;100.00
24154;BME280;12312;53.362;-1.518;2023-06-10T00:37:54;99377.22;;;11.48;100.00
24154;BME280;12312;53.362;-1.518;2023-06-10T00:40:41;99375.25;;;11.62;100.00
24154;BME280;12312;53.362;-1.518;2023-06-10T00:43:25;99364.78;;;11.59;100.00
24154;BME280;12312;53.362;-1.518;2023-06-10T00:46:10;99365.53;;;11.61;100.00
24154;BME280;12312;53.362;-1.518;2023-06-10T00:48:56;99373.41;;;11.39;100.00
24154;BME280;12312;53.362;-1.518;2023-06-10T00:51:40;99376.75;;;11.66;100.00
24154;BME280;12312;53.362;-1.518;2023-06-10T00:54:25;99367.25;;;11.62;100.00
24154;BME280;12312;53.362;-1.518;2023-06-10T00:57:09;99366.50;;;11.60;100.00
24154;BME280;12312;53.362;-1.518;2023-06-10T00:59:54;99369.16;;;11.60;100.00
24154;BME280;12312;53.362;-1.518;2023-06-10T01:02:38;99366.00;;;11.32;100.00
24154;BME280;12312;53.362;-1.518;2023-06-10T01:05:23;99361.19;;;11.24;100.00
24154;BME280;12312;53.362;-1.518;2023-06-10T01:08:33;99368.31;;;11.36;100.00
24154;BME280;12312;53.362;-1.518;2023-06-10T01:11:23;99348.44;;;11.17;100.00
24154;BME280;12312;53.362;-1.518;2023-06-10T01:14:09;99357.28;;;11.17;100.00
24154;BME280;12312;53.362;-1.518;2023-06-10T01:16:53;99353.53;;;11.20;100.00
24154;BME280;12312;53.362;-1.518;2023-06-10T01:19:38;99355.38;;;11.19;100.00
24154;BME280;12312;53.362;-1.518;2023-06-10T01:22:25;99355.72;;;11.38;100.00
24154;BME280;12312;53.362;-1.518;2023-06-10T01:25:17;99354.41;;;11.20;100.00
24154;BME280;12312;53.362;-1.518;2023-06-10T01:28:17;99350.75;;;11.21;100.00
24154;BME280;12312;53.362;-1.518;2023-06-10T01:34:10;99355.81;;;11.13;100.00
24154;BME280;12312;53.362;-1.518;2023-06-10T01:36:56;99357.59;;;11.25;100.00
24154;BME280;12312;53.362;-1.518;2023-06-10T01:39:42;99343.44;;;11.12;100.00
24154;BME280;12312;53.362;-1.518;2023-06-10T01:42:27;99340.41;;;11.29;100.00
24154;BME280;12312;53.362;-1.518;2023-06-10T01:45:12;99340.88;;;11.11;100.00
24154;BME280;12312;53.362;-1.518;2023-06-10T01:47:55;99336.19;;;11.14;100.00
24154;BME280;12312;53.362;-1.518;2023-06-10T01:50:40;99333.59;;;11.25;100.00
24154;BME280;12312;53.362;-1.518;2023-06-10T01:53:24;99329.97;;;11.26;100.00
24154;BME280;12312;53.362;-1.518;2023-06-10T01:56:08;99332.94;;;11.34;100.00
24154;BME280;12312;53.362;-1.518;2023-06-10T01:58:52;99337.09;;;11.26;100.00
24154;BME280;12312;53.362;-1.518;2023-06-10T02:01:38;99338.41;;;11.20;100.00
24154;BME280;12312;53.362;-1.518;2023-06-10T02:04:22;99332.06;;;11.10;100.00
24154;BME280;12312;53.362;-1.518;2023-06-10T02:07:06;99333.88;;;11.10;100.00
24154;BME280;12312;53.362;-1.518;2023-06-10T02:09:51;99335.22;;;11.15;100.00
24154;BME280;12312;53.362;-1.518;2023-06-10T02:12:35;99333.84;;;11.22;100.00
24154;BME280;12312;53.362;-1.518;2023-06-10T02:15:19;99335.53;;;11.23;100.00
24154;BME280;12312;53.362;-1.518;2023-06-10T02:18:03;99334.75;;;10.98;100.00
24154;BME280;12312;53.362;-1.518;2023-06-10T02:20:47;99334.34;;;10.91;100.00
24154;BME280;12312;53.362;-1.518;2023-06-10T02:23:31;99324.66;;;10.90;100.00
24154;BME280;12312;53.362;-1.518;2023-06-10T02:26:15;99334.13;;;10.94;100.00
24154;BME280;12312;53.362;-1.518;2023-06-10T02:28:59;99334.56;;;10.88;100.00
24154;BME280;12312;53.362;-1.518;2023-06-10T02:31:43;99324.31;;;11.07;100.00
24154;BME280;12312;53.362;-1.518;2023-06-10T02:34:26;99321.78;;;10.93;100.00
24154;BME280;12312;53.362;-1.518;2023-06-10T02:37:11;99328.19;;;10.91;100.00
24154;BME280;12312;53.362;-1.518;2023-06-10T02:39:55;99322.91;;;11.02;100.00
24154;BME280;12312;53.362;-1.518;2023-06-10T02:42:39;99322.00;;;10.90;100.00
24154;BME280;12312;53.362;-1.518;2023-06-10T02:45:23;99323.91;;;10.88;100.00
24154;BME280;12312;53.362;-1.518;2023-06-10T02:48:07;99322.56;;;11.06;100.00
24154;BME280;12312;53.362;-1.518;2023-06-10T02:50:51;99321.41;;;11.10;100.00
24154;BME280;12312;53.362;-1.518;2023-06-10T02:53:35;99317.41;;;11.28;100.00
24154;BME280;12312;53.362;-1.518;2023-06-10T02:56:19;99314.22;;;11.23;100.00
24154;BME280;12312;53.362;-1.518;2023-06-10T02:59:03;99317.84;;;11.22;100.00
24154;BME280;12312;53.362;-1.518;2023-06-10T03:01:47;99316.00;;;10.99;100.00
24154;BME280;12312;53.362;-1.518;2023-06-10T03:04:31;99320.88;;;11.05;100.00
24154;BME280;12312;53.362;-1.518;2023-06-10T03:07:15;99310.47;;;11.02;100.00
24154;BME280;12312;53.362;-1.518;2023-06-10T03:09:59;99311.09;;;11.06;100.00
24154;BME280;12312;53.362;-1.518;2023-06-10T03:12:43;99306.16;;;11.12;100.00
24154;BME280;12312;53.362;-1.518;2023-06-10T03:15:27;99308.03;;;10.99;100.00
24154;BME280;12312;53.362;-1.518;2023-06-10T03:18:12;99315.22;;;11.10;100.00
24154;BME280;12312;53.362;-1.518;2023-06-10T03:20:56;99314.09;;;11.01;100.00
24154;BME280;12312;53.362;-1.518;2023-06-10T03:23:41;99308.78;;;11.01;100.00
24154;BME280;12312;53.362;-1.518;2023-06-10T03:26:26;99308.13;;;10.98;100.00
24154;BME280;12312;53.362;-1.518;2023-06-10T03:29:11;99300.72;;;10.77;100.00
24154;BME280;12312;53.362;-1.518;2023-06-10T03:31:55;99306.25;;;10.87;100.00
24154;BME280;12312;53.362;-1.518;2023-06-10T03:34:40;99304.03;;;10.81;100.00
24154;BME280;12312;53.362;-1.518;2023-06-10T03:37:25;99301.34;;;10.94;100.00
24154;BME280;12312;53.362;-1.518;2023-06-10T03:40:09;99303.66;;;10.98;100.00
24154;BME280;12312;53.362;-1.518;2023-06-10T03:42:54;99302.03;;;10.72;100.00
24154;BME280;12312;53.362;-1.518;2023-06-10T03:45:38;99314.75;;;10.92;100.00
24154;BME280;12312;53.362;-1.518;2023-06-10T03:48:22;99325.53;;;10.78;100.00
24154;BME280;12312;53.362;-1.518;2023-06-10T03:51:06;99309.47;;;10.79;100.00
24154;BME280;12312;53.362;-1.518;2023-06-10T03:53:49;99310.09;;;10.83;100.00
24154;BME280;12312;53.362;-1.518;2023-06-10T03:56:35;99311.13;;;10.93;100.00
24154;BME280;12312;53.362;-1.518;2023-06-10T03:59:19;99316.38;;;10.69;100.00
24154;BME280;12312;53.362;-1.518;2023-06-10T04:02:03;99308.91;;;10.87;100.00
24154;BME280;12312;53.362;-1.518;2023-06-10T04:04:48;99302.63;;;10.88;100.00
24154;BME280;12312;53.362;-1.518;2023-06-10T04:07:32;99298.94;;;10.78;100.00
24154;BME280;12312;53.362;-1.518;2023-06-10T04:10:18;99302.03;;;10.59;100.00
24154;BME280;12312;53.362;-1.518;2023-06-10T04:13:02;99307.34;;;10.72;100.00
24154;BME280;12312;53.362;-1.518;2023-06-10T04:15:47;99311.38;;;10.65;100.00
24154;BME280;12312;53.362;-1.518;2023-06-10T04:18:31;99303.13;;;10.57;100.00
24154;BME280;12312;53.362;-1.518;2023-06-10T04:21:15;99301.81;;;10.62;100.00
24154;BME280;12312;53.362;-1.518;2023-06-10T04:24:00;99295.88;;;10.59;100.00
24154;BME280;12312;53.362;-1.518;2023-06-10T04:26:43;99297.59;;;10.60;100.00
24154;BME280;12312;53.362;-1.518;2023-06-10T04:29:28;99303.25;;;10.55;100.00
24154;BME280;12312;53.362;-1.518;2023-06-10T04:32:12;99299.06;;;10.51;100.00
24154;BME280;12312;53.362;-1.518;2023-06-10T04:34:56;99313.00;;;10.55;100.00
24154;BME280;12312;53.362;-1.518;2023-06-10T04:37:40;99306.94;;;10.53;100.00
24154;BME280;12312;53.362;-1.518;2023-06-10T04:40:25;99308.28;;;10.71;100.00
24154;BME280;12312;53.362;-1.518;2023-06-10T04:43:10;99294.38;;;10.67;100.00
24154;BME280;12312;53.362;-1.518;2023-06-10T04:45:55;99291.28;;;10.73;100.00
24154;BME280;12312;53.362;-1.518;2023-06-10T04:48:39;99302.47;;;10.66;100.00
24154;BME280;12312;53.362;-1.518;2023-06-10T04:51:24;99303.28;;;10.79;100.00
24154;BME280;12312;53.362;-1.518;2023-06-10T04:54:08;99302.84;;;10.72;100.00
24154;BME280;12312;53.362;-1.518;2023-06-10T04:56:52;99311.19;;;10.68;100.00
24154;BME280;12312;53.362;-1.518;2023-06-10T04:59:36;99304.78;;;10.83;100.00
24154;BME280;12312;53.362;-1.518;2023-06-10T05:02:22;99298.94;;;10.78;100.00
24154;BME280;12312;53.362;-1.518;2023-06-10T05:05:06;99302.38;;;10.91;100.00
24154;BME280;12312;53.362;-1.518;2023-06-10T05:07:50;99294.94;;;10.96;100.00
24154;BME280;12312;53.362;-1.518;2023-06-10T05:10:34;99297.94;;;10.79;100.00
24154;BME280;12312;53.362;-1.518;2023-06-10T05:13:18;99287.97;;;10.70;100.00
24154;BME280;12312;53.362;-1.518;2023-06-10T05:16:03;99296.72;;;10.72;100.00
24154;BME280;12312;53.362;-1.518;2023-06-10T05:18:47;99291.34;;;10.85;100.00
24154;BME280;12312;53.362;-1.518;2023-06-10T05:21:31;99280.41;;;11.00;100.00
24154;BME280;12312;53.362;-1.518;2023-06-10T05:24:15;99277.25;;;10.95;100.00
24154;BME280;12312;53.362;-1.518;2023-06-10T05:26:59;99285.41;;;11.05;100.00
24154;BME280;12312;53.362;-1.518;2023-06-10T05:29:43;99293.00;;;10.98;100.00
24154;BME280;12312;53.362;-1.518;2023-06-10T05:32:26;99287.91;;;10.95;100.00
24154;BME280;12312;53.362;-1.518;2023-06-10T05:35:11;99290.84;;;11.03;100.00
24154;BME280;12312;53.362;-1.518;2023-06-10T05:37:54;99288.59;;;10.86;100.00
24154;BME280;12312;53.362;-1.518;2023-06-10T05:40:39;99288.72;;;11.08;100.00
24154;BME280;12312;53.362;-1.518;2023-06-10T05:43:23;99287.28;;;10.92;100.00
24154;BME280;12312;53.362;-1.518;2023-06-10T05:46:07;99289.16;;;11.02;100.00
24154;BME280;12312;53.362;-1.518;2023-06-10T05:48:51;99289.25;;;11.24;100.00
24154;BME280;12312;53.362;-1.518;2023-06-10T05:51:36;99291.81;;;11.26;100.00
24154;BME280;12312;53.362;-1.518;2023-06-10T05:54:21;99294.81;;;11.21;100.00
24154;BME280;12312;53.362;-1.518;2023-06-10T05:57:05;99293.66;;;11.25;100.00
24154;BME280;12312;53.362;-1.518;2023-06-10T05:59:49;99294.44;;;11.15;100.00
24154;BME280;12312;53.362;-1.518;2023-06-10T06:02:33;99303.09;;;11.29;100.00
24154;BME280;12312;53.362;-1.518;2023-06-10T06:05:17;99291.94;;;11.48;100.00
24154;BME280;12312;53.362;-1.518;2023-06-10T06:08:01;99307.78;;;11.26;100.00
24154;BME280;12312;53.362;-1.518;2023-06-10T06:10:46;99303.69;;;11.45;100.00
24154;BME280;12312;53.362;-1.518;2023-06-10T06:13:31;99298.59;;;11.53;100.00
24154;BME280;12312;53.362;-1.518;2023-06-10T06:16:15;99301.38;;;11.41;100.00
24154;BME280;12312;53.362;-1.518;2023-06-10T06:19:00;99299.81;;;11.49;100.00
24154;BME280;12312;53.362;-1.518;2023-06-10T06:21:44;99287.47;;;11.48;100.00
24154;BME280;12312;53.362;-1.518;2023-06-10T06:24:28;99298.13;;;11.48;100.00
24154;BME280;12312;53.362;-1.518;2023-06-10T06:27:12;99298.03;;;11.61;100.00
24154;BME280;12312;53.362;-1.518;2023-06-10T06:29:56;99288.88;;;11.65;100.00
24154;BME280;12312;53.362;-1.518;2023-06-10T06:32:40;99288.53;;;11.69;100.00
24154;BME280;12312;53.362;-1.518;2023-06-10T06:35:25;99293.88;;;11.80;100.00
24154;BME280;12312;53.362;-1.518;2023-06-10T06:38:10;99298.19;;;11.94;100.00
24154;BME280;12312;53.362;-1.518;2023-06-10T06:40:55;99292.03;;;12.04;100.00
24154;BME280;12312;53.362;-1.518;2023-06-10T06:43:39;99294.94;;;12.12;100.00
24154;BME280;12312;53.362;-1.518;2023-06-10T06:46:23;99297.59;;;12.01;100.00
24154;BME280;12312;53.362;-1.518;2023-06-10T06:49:07;99294.22;;;12.21;100.00
24154;BME280;12312;53.362;-1.518;2023-06-10T06:51:51;99283.19;;;12.37;100.00
24154;BME280;12312;53.362;-1.518;2023-06-10T06:54:35;99291.78;;;12.18;100.00
24154;BME280;12312;53.362;-1.518;2023-06-10T06:57:19;99284.78;;;12.28;100.00
24154;BME280;12312;53.362;-1.518;2023-06-10T07:00:04;99285.38;;;12.32;100.00
24154;BME280;12312;53.362;-1.518;2023-06-10T07:02:48;99298.00;;;12.52;100.00
24154;BME280;12312;53.362;-1.518;2023-06-10T07:05:32;99286.25;;;12.54;100.00
24154;BME280;12312;53.362;-1.518;2023-06-10T07:08:16;99285.47;;;12.86;100.00
24154;BME280;12312;53.362;-1.518;2023-06-10T07:11:00;99279.88;;;12.89;100.00
24154;BME280;12312;53.362;-1.518;2023-06-10T07:13:44;99287.19;;;13.09;100.00
24154;BME280;12312;53.362;-1.518;2023-06-10T07:16:28;99281.84;;;13.09;100.00
24154;BME280;12312;53.362;-1.518;2023-06-10T07:19:12;99285.19;;;13.22;100.00
24154;BME280;12312;53.362;-1.518;2023-06-10T07:21:57;99291.91;;;13.05;100.00
24154;BME280;12312;53.362;-1.518;2023-06-10T07:24:41;99291.31;;;12.80;100.00
24154;BME280;12312;53.362;-1.518;2023-06-10T07:27:25;99292.28;;;12.90;100.00
24154;BME280;12312;53.362;-1.518;2023-06-10T07:30:09;99296.69;;;13.02;100.00
24154;BME280;12312;53.362;-1.518;2023-06-10T07:32:54;99297.75;;;13.42;100.00
24154;BME280;12312;53.362;-1.518;2023-06-10T07:35:39;99284.88;;;13.47;100.00
24154;BME280;12312;53.362;-1.518;2023-06-10T07:38:27;99286.44;;;13.49;100.00
24154;BME280;12312;53.362;-1.518;2023-06-10T07:41:11;99284.66;;;13.39;100.00
24154;BME280;12312;53.362;-1.518;2023-06-10T07:43:55;99288.06;;;13.41;100.00
24154;BME280;12312;53.362;-1.518;2023-06-10T07:46:40;99288.28;;;13.49;100.00
24154;BME280;12312;53.362;-1.518;2023-06-10T07:49:23;99286.88;;;13.65;100.00
24154;BME280;12312;53.362;-1.518;2023-06-10T07:52:08;99273.94;;;13.70;100.00
24154;BME280;12312;53.362;-1.518;2023-06-10T07:54:52;99281.84;;;14.13;100.00
24154;BME280;12312;53.362;-1.518;2023-06-10T07:57:36;99276.72;;;14.00;100.00
24154;BME280;12312;53.362;-1.518;2023-06-10T08:00:22;99274.00;;;14.21;100.00
24154;BME280;12312;53.362;-1.518;2023-06-10T08:03:07;99279.44;;;14.31;100.00
24154;BME280;12312;53.362;-1.518;2023-06-10T08:05:51;99277.53;;;14.42;100.00
24154;BME280;12312;53.362;-1.518;2023-06-10T08:08:35;99278.66;;;14.40;100.00
24154;BME280;12312;53.362;-1.518;2023-06-10T08:11:25;99284.75;;;14.51;100.00
24154;BME280;12312;53.362;-1.518;2023-06-10T08:14:12;99278.72;;;14.49;100.00
24154;BME280;12312;53.362;-1.518;2023-06-10T08:16:56;99282.63;;;14.85;100.00
24154;BME280;12312;53.362;-1.518;2023-06-10T08:19:40;99274.81;;;14.72;100.00
24154;BME280;12312;53.362;-1.518;2023-06-10T08:22:24;99264.69;;;14.76;100.00
24154;BME280;12312;53.362;-1.518;2023-06-10T08:25:08;99280.81;;;14.85;100.00
24154;BME280;12312;53.362;-1.518;2023-06-10T08:27:52;99276.44;;;14.94;100.00
24154;BME280;12312;53.362;-1.518;2023-06-10T08:30:41;99273.69;;;15.24;100.00
24154;BME280;12312;53.362;-1.518;2023-06-10T08:33:25;99269.66;;;15.48;100.00
24154;BME280;12312;53.362;-1.518;2023-06-10T08:36:09;99263.44;;;15.57;100.00
24154;BME280;12312;53.362;-1.518;2023-06-10T08:38:54;99269.50;;;15.78;100.00
24154;BME280;12312;53.362;-1.518;2023-06-10T08:41:42;99271.19;;;15.89;100.00
24154;BME280;12312;53.362;-1.518;2023-06-10T08:44:29;99267.69;;;15.79;100.00
24154;BME280;12312;53.362;-1.518;2023-06-10T08:47:14;99257.19;;;16.04;100.00
24154;BME280;12312;53.362;-1.518;2023-06-10T08:50:03;99254.66;;;16.03;100.00
24154;BME280;12312;53.362;-1.518;2023-06-10T08:52:50;99259.19;;;16.02;100.00
24154;BME280;12312;53.362;-1.518;2023-06-10T08:55:42;99255.50;;;16.13;100.00
24154;BME280;12312;53.362;-1.518;2023-06-10T08:58:27;99257.69;;;16.37;100.00
24154;BME280;12312;53.362;-1.518;2023-06-10T09:01:12;99260.22;;;16.48;100.00
24154;BME280;12312;53.362;-1.518;2023-06-10T09:03:58;99251.28;;;16.38;100.00
24154;BME280;12312;53.362;-1.518;2023-06-10T09:06:42;99259.03;;;16.60;100.00
24154;BME280;12312;53.362;-1.518;2023-06-10T09:09:28;99250.88;;;16.52;100.00
24154;BME280;12312;53.362;-1.518;2023-06-10T09:12:15;99247.44;;;16.59;100.00
24154;BME280;12312;53.362;-1.518;2023-06-10T09:14:59;99258.56;;;16.74;100.00
24154;BME280;12312;53.362;-1.518;2023-06-10T09:17:44;99242.59;;;17.17;100.00
24154;BME280;12312;53.362;-1.518;2023-06-10T09:20:29;99246.59;;;17.13;100.00
24154;BME280;12312;53.362;-1.518;2023-06-10T09:23:15;99246.59;;;17.13;100.00
24154;BME280;12312;53.362;-1.518;2023-06-10T09:26:00;99244.91;;;17.12;100.00
24154;BME280;12312;53.362;-1.518;2023-06-10T09:28:46;99241.97;;;17.23;100.00
24154;BME280;12312;53.362;-1.518;2023-06-10T09:31:35;99246.09;;;17.44;100.00
24154;BME280;12312;53.362;-1.518;2023-06-10T09:34:24;99246.47;;;17.67;100.00
24154;BME280;12312;53.362;-1.518;2023-06-10T09:37:09;99240.69;;;17.97;100.00
24154;BME280;12312;53.362;-1.518;2023-06-10T09:40:06;99237.22;;;17.87;100.00
24154;BME280;12312;53.362;-1.518;2023-06-10T09:42:55;99239.75;;;18.06;100.00
24154;BME280;12312;53.362;-1.518;2023-06-10T09:45:39;99242.75;;;18.54;100.00
24154;BME280;12312;53.362;-1.518;2023-06-10T09:48:23;99239.91;;;18.30;100.00
24154;BME280;12312;53.362;-1.518;2023-06-10T09:51:12;99226.78;;;18.35;100.00
24154;BME280;12312;53.362;-1.518;2023-06-10T09:53:56;99229.56;;;18.43;100.00
24154;BME280;12312;53.362;-1.518;2023-06-10T09:56:40;99223.41;;;18.33;100.00
24154;BME280;12312;53.362;-1.518;2023-06-10T09:59:29;99227.06;;;18.91;100.00
24154;BME280;12312;53.362;-1.518;2023-06-10T10:02:16;99230.84;;;19.14;100.00
24154;BME280;12312;53.362;-1.518;2023-06-10T10:05:03;99233.69;;;19.55;100.00
24154;BME280;12312;53.362;-1.518;2023-06-10T10:07:51;99228.72;;;19.26;100.00
24154;BME280;12312;53.362;-1.518;2023-06-10T10:10:36;99226.41;;;18.89;100.00
24154;BME280;12312;53.362;-1.518;2023-06-10T10:13:20;99230.78;;;19.48;100.00
24154;BME280;12312;53.362;-1.518;2023-06-10T10:16:17;99223.34;;;19.34;100.00
24154;BME280;12312;53.362;-1.518;2023-06-10T10:19:10;99216.13;;;19.59;100.00
24154;BME280;12312;53.362;-1.518;2023-06-10T10:22:06;99225.75;;;19.69;100.00
24154;BME280;12312;53.362;-1.518;2023-06-10T10:24:56;99219.31;;;20.02;100.00
24154;BME280;12312;53.362;-1.518;2023-06-10T10:27:48;99213.25;;;19.68;100.00
24154;BME280;12312;53.362;-1.518;2023-06-10T10:30:46;99214.47;;;19.66;100.00
24154;BME280;12312;53.362;-1.518;2023-06-10T10:33:54;99219.50;;;20.17;100.00
24154;BME280;12312;53.362;-1.518;2023-06-10T10:36:40;99215.91;;;20.40;100.00
24154;BME280;12312;53.362;-1.518;2023-06-10T10:39:26;99215.00;;;20.56;100.00
24154;BME280;12312;53.362;-1.518;2023-06-10T10:42:12;99218.75;;;20.55;100.00
24154;BME280;12312;53.362;-1.518;2023-06-10T10:44:57;99220.84;;;20.21;100.00
24154;BME280;12312;53.362;-1.518;2023-06-10T10:47:45;99220.16;;;20.11;100.00
24154;BME280;12312;53.362;-1.518;2023-06-10T10:50:29;99223.88;;;20.02;100.00
24154;BME280;12312;53.362;-1.518;2023-06-10T10:53:19;99216.56;;;20.42;100.00
24154;BME280;12312;53.362;-1.518;2023-06-10T10:56:12;99212.28;;;20.72;100.00
24154;BME280;12312;53.362;-1.518;2023-06-10T10:59:04;99212.50;;;20.93;100.00
24154;BME280;12312;53.362;-1.518;2023-06-10T11:01:49;99211.31;;;20.57;100.00
24154;BME280;12312;53.362;-1.518;2023-06-10T11:04:33;99209.94;;;20.61;100.00
24154;BME280;12312;53.362;-1.518;2023-06-10T11:07:20;99199.03;;;20.77;100.00
24154;BME280;12312;53.362;-1.518;2023-06-10T11:12:53;99203.88;;;21.28;100.00
24154;BME280;12312;53.362;-1.518;2023-06-10T11:15:48;99207.06;;;21.54;99.70
24154;BME280;12312;53.362;-1.518;2023-06-10T11:18:38;99201.91;;;21.67;99.76
24154;BME280;12312;53.362;-1.518;2023-06-10T11:21:23;99203.16;;;21.34;99.27
24154;BME280;12312;53.362;-1.518;2023-06-10T11:24:12;99204.44;;;21.46;98.88
24154;BME280;12312;53.362;-1.518;2023-06-10T11:32:50;99209.47;;;21.94;96.88
24154;BME280;12312;53.362;-1.518;2023-06-10T11:35:35;99199.47;;;22.46;94.38
24154;BME280;12312;53.362;-1.518;2023-06-10T11:38:19;99196.59;;;23.13;88.38
24154;BME280;12312;53.362;-1.518;2023-06-10T11:41:03;99202.00;;;23.42;81.56
24154;BME280;12312;53.362;-1.518;2023-06-10T11:43:47;99185.88;;;24.03;81.56
24154;BME280;12312;53.362;-1.518;2023-06-10T11:46:32;99191.84;;;24.47;79.63
24154;BME280;12312;53.362;-1.518;2023-06-10T11:49:17;99187.13;;;25.50;70.60
24154;BME280;12312;53.362;-1.518;2023-06-10T11:52:04;99191.31;;;25.72;69.42
24154;BME280;12312;53.362;-1.518;2023-06-10T11:54:57;99193.88;;;26.20;69.33
24154;BME280;12312;53.362;-1.518;2023-06-10T11:57:41;99182.53;;;26.49;67.75
24154;BME280;12312;53.362;-1.518;2023-06-10T12:00:25;99181.63;;;26.81;65.71
24154;BME280;12312;53.362;-1.518;2023-06-10T12:03:09;99187.47;;;26.91;64.43
24154;BME280;12312;53.362;-1.518;2023-06-10T12:05:57;99183.63;;;27.05;63.20
24154;BME280;12312;53.362;-1.518;2023-06-10T12:08:43;99176.19;;;26.55;64.45
24154;BME280;12312;53.362;-1.518;2023-06-10T12:11:27;99175.59;;;26.66;64.08
24154;BME280;12312;53.362;-1.518;2023-06-10T12:14:11;99173.88;;;27.22;64.23
24154;BME280;12312;53.362;-1.518;2023-06-10T12:16:56;99168.13;;;28.23;59.71
24154;BME280;12312;53.362;-1.518;2023-06-10T12:19:40;99173.53;;;28.12;58.32
24154;BME280;12312;53.362;-1.518;2023-06-10T12:22:24;99166.94;;;28.19;58.14
24154;BME280;12312;53.362;-1.518;2023-06-10T12:25:10;99165.63;;;29.00;54.89
24154;BME280;12312;53.362;-1.518;2023-06-10T12:27:56;99163.53;;;29.62;54.29
24154;BME280;12312;53.362;-1.518;2023-06-10T12:30:40;99160.22;;;28.15;57.72
24154;BME280;12312;53.362;-1.518;2023-06-10T12:33:25;99158.34;;;29.42;55.11
24154;BME280;12312;53.362;-1.518;2023-06-10T12:36:16;99157.69;;;29.58;52.52
24154;BME280;12312;53.362;-1.518;2023-06-10T12:39:04;99145.47;;;28.16;57.23
24154;BME280;12312;53.362;-1.518;2023-06-10T12:41:49;99142.06;;;28.63;57.09
24154;BME280;12312;53.362;-1.518;2023-06-10T12:44:35;99139.25;;;28.88;54.75
24154;BME280;12312;53.362;-1.518;2023-06-10T12:47:19;99144.75;;;28.03;58.41
24154;BME280;12312;53.362;-1.518;2023-06-10T12:50:04;99145.94;;;29.10;54.64
24154;BME280;12312;53.362;-1.518;2023-06-10T12:52:48;99150.16;;;29.54;53.55
24154;BME280;12312;53.362;-1.518;2023-06-10T12:55:33;99138.22;;;29.89;51.39
24154;BME280;12312;53.362;-1.518;2023-06-10T12:58:19;99138.72;;;30.09;51.01
24154;BME280;12312;53.362;-1.518;2023-06-10T13:01:03;99128.91;;;29.90;48.94
24154;BME280;12312;53.362;-1.518;2023-06-10T13:03:48;99121.50;;;30.71;48.08
24154;BME280;12312;53.362;-1.518;2023-06-10T13:06:32;99120.19;;;30.74;48.70
24154;BME280;12312;53.362;-1.518;2023-06-10T13:09:21;99116.41;;;30.06;49.22
24154;BME280;12312;53.362;-1.518;2023-06-10T13:12:06;99119.31;;;30.34;49.66
24154;BME280;12312;53.362;-1.518;2023-06-10T13:14:50;99109.59;;;29.56;52.53
24154;BME280;12312;53.362;-1.518;2023-06-10T13:17:34;99106.13;;;30.36;50.17
24154;BME280;12312;53.362;-1.518;2023-06-10T13:20:19;99114.47;;;29.83;50.84
24154;BME280;12312;53.362;-1.518;2023-06-10T13:23:04;99111.63;;;30.47;49.50
24154;BME280;12312;53.362;-1.518;2023-06-10T13:25:48;99098.88;;;30.41;48.21
24154;BME280;12312;53.362;-1.518;2023-06-10T13:28:32;99099.25;;;30.84;49.44
24154;BME280;12312;53.362;-1.518;2023-06-10T13:31:16;99095.50;;;32.24;44.84
24154;BME280;12312;53.362;-1.518;2023-06-10T13:34:00;99094.88;;;31.84;44.54
24154;BME280;12312;53.362;-1.518;2023-06-10T13:36:44;99096.00;;;31.55;45.42
24154;BME280;12312;53.362;-1.518;2023-06-10T13:39:28;99088.88;;;31.87;44.33
24154;BME280;12312;53.362;-1.518;2023-06-10T13:42:12;99089.16;;;32.07;45.92
24154;BME280;12312;53.362;-1.518;2023-06-10T13:44:56;99079.78;;;32.41;43.11
24154;BME280;12312;53.362;-1.518;2023-06-10T13:47:42;99068.47;;;31.55;45.02
24154;BME280;12312;53.362;-1.518;2023-06-10T13:50:26;99068.19;;;31.12;45.62
24154;BME280;12312;53.362;-1.518;2023-06-10T13:53:10;99069.28;;;31.39;46.53
24154;BME280;12312;53.362;-1.518;2023-06-10T13:55:54;99067.56;;;30.08;46.81
24154;BME280;12312;53.362;-1.518;2023-06-10T13:58:38;99066.28;;;29.05;50.71
24154;BME280;12312;53.362;-1.518;2023-06-10T14:01:24;99048.66;;;28.83;52.29
24154;BME280;12312;53.362;-1.518;2023-06-10T14:04:08;99058.50;;;28.54;51.57
24154;BME280;12312;53.362;-1.518;2023-06-10T14:06:52;99050.41;;;28.41;54.13
24154;BME280;12312;53.362;-1.518;2023-06-10T14:09:36;99050.94;;;28.14;54.05
24154;BME280;12312;53.362;-1.518;2023-06-10T14:12:20;99054.38;;;28.27;53.87
24154;BME280;12312;53.362;-1.518;2023-06-10T14:15:04;99049.88;;;27.97;56.25
24154;BME280;12312;53.362;-1.518;2023-06-10T14:17:48;99043.69;;;27.58;54.66
24154;BME280;12312;53.362;-1.518;2023-06-10T14:20:32;99041.03;;;27.70;56.25
24154;BME280;12312;53.362;-1.518;2023-06-10T14:23:16;99039.03;;;27.59;55.18
24154;BME280;12312;53.362;-1.518;2023-06-10T14:26:01;99042.19;;;27.80;55.00
24154;BME280;12312;53.362;-1.518;2023-06-10T14:28:46;99045.34;;;27.84;54.60